Time;durP1;ratioP1;P1;durP2;ratioP2;P2;SDS_P1;SDS_P2;PMS_P1;PMS_P2;Temp;Humidity;BMP_temperature;BMP_pressure;BME280_temperature;BME280_humidity;BME280_pressure;Samples;Min_cycle;Max_cycle;Signal;HPM_P1;HPM_P2
2022/11/04 00:01:57;;;;;;;3.43;1.30;;;;;;;13.53;85.66;99523.31;5049396;28;20687;-63
2022/11/04 00:04:26;;;;;;;2.33;1.20;;;;;;;13.56;85.18;99513.06;5051227;28;20217;-63
2022/11/04 00:06:56;;;;;;;2.83;1.37;;;;;;;13.59;84.84;99519.03;5056446;28;20692;-63
2022/11/04 00:09:34;;;;;;;1.87;1.00;;;;;;;13.54;85.36;99514.31;5051156;28;20215;-70
2022/11/04 00:17:49;;;;;;;1.90;1.00;;;;;;;13.56;84.34;99512.25;5056600;28;20213;-64
2022/11/04 00:28:43;;;;;;;2.97;0.80;;;;;;;13.75;83.09;99500.97;5060607;28;21799;-65
2022/11/04 00:33:58;;;;;;;1.33;0.70;;;;;;;13.79;82.74;99496.91;5050519;28;20244;-62
2022/11/04 00:36:26;;;;;;;1.33;0.67;;;;;;;13.75;82.64;99506.28;5053088;28;20934;-63
2022/11/04 00:38:54;;;;;;;2.03;0.70;;;;;;;13.74;81.85;99517.97;5053772;28;21158;-62
2022/11/04 00:41:26;;;;;;;1.10;0.50;;;;;;;13.71;81.99;99515.69;5052553;28;20206;-62
2022/11/04 00:43:56;;;;;;;1.23;0.67;;;;;;;13.69;81.95;99514.22;5053934;28;20207;-62
2022/11/04 00:46:24;;;;;;;1.33;0.60;;;;;;;13.73;82.08;99512.81;5054395;28;20214;-62
2022/11/04 00:48:51;;;;;;;1.30;0.70;;;;;;;13.72;81.94;99522.66;5056239;28;20215;-63
2022/11/04 00:51:20;;;;;;;0.93;0.53;;;;;;;13.71;81.56;99539.66;5053251;28;20742;-64
2022/11/04 00:53:48;;;;;;;2.63;0.73;;;;;;;13.73;81.20;99550.94;5061613;28;20294;-61
2022/11/04 00:56:16;;;;;;;1.77;0.70;;;;;;;13.65;82.22;99542.25;5060813;28;20256;-66
2022/11/04 00:58:45;;;;;;;2.20;0.80;;;;;;;13.62;82.44;99537.31;5058083;28;20798;-62
2022/11/04 01:01:16;;;;;;;2.37;0.90;;;;;;;13.64;82.78;99538.75;5053546;28;20222;-63
2022/11/04 01:03:44;;;;;;;3.00;0.90;;;;;;;13.63;82.69;99537.13;5055934;28;20313;-62
2022/11/04 01:06:12;;;;;;;3.40;0.80;;;;;;;13.60;82.89;99545.50;5052809;28;20573;-62
2022/11/04 01:08:40;;;;;;;3.80;0.70;;;;;;;13.60;83.04;99553.50;5050185;28;20212;-64
2022/11/04 01:11:09;;;;;;;2.03;0.60;;;;;;;13.62;82.57;99543.47;5055036;28;20244;-63
2022/11/04 01:13:38;;;;;;;1.50;0.70;;;;;;;13.65;82.40;99542.25;5055973;28;20630;-64
2022/11/04 01:16:10;;;;;;;2.60;1.00;;;;;;;13.64;81.44;99545.91;5052310;28;20239;-64
2022/11/04 01:18:37;;;;;;;2.53;0.90;;;;;;;13.62;81.48;99532.81;5054545;28;20626;-64
2022/11/04 01:21:07;;;;;;;1.57;1.00;;;;;;;13.64;80.43;99545.91;5057243;28;20214;-63
2022/11/04 01:23:35;;;;;;;1.80;0.80;;;;;;;13.60;80.98;99545.50;5055494;28;20544;-63
2022/11/04 01:26:05;;;;;;;1.80;0.80;;;;;;;13.54;80.58;99551.59;5063169;28;20640;-63
2022/11/04 01:28:33;;;;;;;3.57;0.70;;;;;;;13.48;80.44;99545.16;5059399;28;20210;-63
2022/11/04 01:31:07;;;;;;;1.80;0.90;;;;;;;13.49;80.56;99552.16;5058009;28;20717;-63
2022/11/04 01:33:35;;;;;;;2.30;0.90;;;;;;;13.49;80.53;99553.97;5056095;28;20247;-63
2022/11/04 01:36:04;;;;;;;2.13;0.80;;;;;;;13.50;80.57;99555.63;5061348;28;20621;-64
2022/11/04 01:38:32;;;;;;;1.30;0.70;;;;;;;13.49;80.21;99559.31;5056158;28;20212;-65
2022/11/04 01:40:59;;;;;;;4.23;1.00;;;;;;;13.45;80.16;99555.38;5059245;28;20921;-63
2022/11/04 01:43:44;;;;;;;2.47;0.97;;;;;;;13.48;79.92;99557.66;5057553;28;20729;-63
2022/11/04 01:46:22;;;;;;;3.23;1.10;;;;;;;13.48;79.86;99558.47;5054821;28;20205;-62
2022/11/04 01:48:51;;;;;;;3.07;1.10;;;;;;;13.58;79.31;99560.84;5055894;28;20603;-63
2022/11/04 01:51:20;;;;;;;2.10;0.80;;;;;;;13.59;78.52;99570.47;5052949;28;20209;-63
2022/11/04 01:53:51;;;;;;;6.30;1.23;;;;;;;13.56;78.66;99566.34;5057626;28;20820;-64
2022/11/04 01:56:19;;;;;;;3.80;1.10;;;;;;;13.54;78.83;99570.22;5056138;28;20221;-63
2022/11/04 01:58:52;;;;;;;3.57;1.03;;;;;;;13.52;79.31;99567.75;5056590;28;20210;-63
2022/11/04 02:01:21;;;;;;;3.90;1.33;;;;;;;13.52;79.43;99565.09;5051696;28;20270;-64
2022/11/04 02:03:53;;;;;;;5.67;1.03;;;;;;;13.54;78.93;99567.56;5051849;28;20984;-63
2022/11/04 02:06:22;;;;;;;3.63;0.80;;;;;;;13.53;78.72;99572.06;5051892;28;20217;-64
2022/11/04 02:08:49;;;;;;;3.17;1.10;;;;;;;13.50;79.05;99579.59;5047885;28;20264;-63
2022/11/04 02:13:59;;;;;;;2.23;1.10;;;;;;;13.44;79.01;99586.50;5048150;28;20281;-64
2022/11/04 02:16:38;;;;;;;4.47;1.20;;;;;;;13.44;78.84;99588.34;5051531;28;20225;-65
2022/11/04 02:19:29;;;;;;;3.00;1.00;;;;;;;13.46;78.58;99597.78;5049092;28;20228;-64
2022/11/04 02:22:23;;;;;;;2.03;1.10;;;;;;;13.56;77.76;99592.16;5050804;28;20612;-64
2022/11/04 02:25:06;;;;;;;2.87;0.90;;;;;;;13.54;77.05;99596.88;5049299;28;20270;-64
2022/11/04 02:27:48;;;;;;;3.37;0.90;;;;;;;13.42;77.43;99604.50;5048980;28;20251;-64
2022/11/04 02:30:18;;;;;;;2.73;1.00;;;;;;;13.44;77.39;99597.16;5051278;28;20200;-62
2022/11/04 02:33:08;;;;;;;3.17;1.10;;;;;;;13.41;77.30;99608.19;5053538;28;20659;-64
2022/11/04 02:35:43;;;;;;;3.10;1.00;;;;;;;13.42;76.43;99609.84;5047879;28;20237;-64
2022/11/04 02:38:18;;;;;;;5.90;1.17;;;;;;;13.43;76.05;99613.31;5049242;28;20610;-63
2022/11/04 02:41:06;;;;;;;5.57;1.40;;;;;;;13.42;76.39;99617.00;5048530;28;20221;-64
2022/11/04 02:43:46;;;;;;;4.67;1.13;;;;;;;13.41;75.70;99620.66;5053634;28;20221;-62
2022/11/04 02:46:23;;;;;;;5.17;1.40;;;;;;;13.44;75.33;99609.66;5052062;28;20212;-63
2022/11/04 02:48:57;;;;;;;5.03;1.20;;;;;;;13.40;75.38;99608.38;5049901;28;20207;-63
2022/11/04 02:51:29;;;;;;;4.30;1.10;;;;;;;13.32;75.80;99606.63;5047515;28;20651;-63
2022/11/04 02:54:05;;;;;;;5.17;1.43;;;;;;;13.33;76.25;99602.13;5051093;28;20719;-63
2022/11/04 02:56:36;;;;;;;8.30;1.73;;;;;;;13.31;75.88;99610.31;5048593;28;20265;-65
2022/11/04 02:59:06;;;;;;;5.47;1.57;;;;;;;13.25;75.94;99612.91;5051777;28;20251;-64
2022/11/04 03:01:40;;;;;;;6.00;1.70;;;;;;;13.22;76.24;99618.59;5048522;28;20236;-63
2022/11/04 03:04:10;;;;;;;6.23;1.50;;;;;;;13.16;77.19;99625.50;5052291;28;20208;-64
2022/11/04 03:06:39;;;;;;;6.43;1.60;;;;;;;13.17;76.86;99629.81;5050909;28;20346;-63
2022/11/04 03:09:10;;;;;;;4.77;1.30;;;;;;;13.14;76.59;99643.47;5055398;28;20263;-63
2022/11/04 03:11:40;;;;;;;4.57;1.50;;;;;;;13.13;76.71;99653.28;5056819;28;20221;-63
2022/11/04 03:14:14;;;;;;;5.50;1.20;;;;;;;13.15;76.52;99642.47;5045337;28;20228;-64
2022/11/04 03:16:47;;;;;;;4.83;1.03;;;;;;;13.12;76.39;99640.97;5047808;28;20264;-64
2022/11/04 03:19:19;;;;;;;5.73;1.47;;;;;;;13.09;75.96;99644.00;5051039;28;20287;-63
2022/11/04 03:21:54;;;;;;;3.80;1.00;;;;;;;13.08;75.49;99641.53;5050908;28;20218;-64
2022/11/04 03:24:22;;;;;;;3.47;1.10;;;;;;;13.02;74.84;99637.75;5062006;28;20620;-63
2022/11/04 03:26:55;;;;;;;4.70;1.80;;;;;;;13.02;75.39;99652.88;5037349;28;20287;-63
2022/11/04 03:29:28;;;;;;;4.53;1.10;;;;;;;13.01;74.99;99651.25;5031612;28;20216;-64
2022/11/04 03:32:07;;;;;;;4.27;1.30;;;;;;;13.05;74.76;99647.19;5036333;28;20192;-64
2022/11/04 03:34:37;;;;;;;9.10;1.47;;;;;;;13.00;75.15;99641.63;5042252;28;20211;-63
2022/11/04 03:37:05;;;;;;;6.03;1.20;;;;;;;13.01;75.07;99652.09;5038937;28;20254;-62
2022/11/04 03:39:33;;;;;;;7.97;1.77;;;;;;;13.03;75.03;99649.22;5027216;28;20606;-63
2022/11/04 03:42:18;;;;;;;9.17;1.40;;;;;;;13.04;74.75;99656.19;5034263;28;20639;-63
2022/11/04 03:44:48;;;;;;;11.03;1.50;;;;;;;13.04;75.00;99656.19;5034817;28;20232;-64
2022/11/04 03:47:19;;;;;;;5.17;1.00;;;;;;;13.04;74.18;99667.66;5033258;28;20218;-63
2022/11/04 03:49:48;;;;;;;6.83;1.67;;;;;;;12.91;74.90;99669.31;5032735;28;20213;-64
2022/11/04 03:52:17;;;;;;;6.33;1.10;;;;;;;12.88;75.37;99662.53;5029827;28;20217;-65
2022/11/04 03:54:46;;;;;;;7.17;1.10;;;;;;;12.93;75.16;99665.44;5030566;28;20259;-64
2022/11/04 03:57:36;;;;;;;4.40;0.90;;;;;;;13.01;74.91;99677.88;5028011;28;20291;-64
2022/11/04 04:00:11;;;;;;;3.73;0.90;;;;;;;12.96;74.47;99659.78;5033880;28;20264;-64
2022/11/04 04:02:52;;;;;;;4.70;1.10;;;;;;;12.93;74.55;99649.47;5031654;28;20197;-65
2022/11/04 04:05:27;;;;;;;3.47;0.90;;;;;;;12.90;74.71;99644.53;5033026;28;20213;-63
2022/11/04 04:08:03;;;;;;;5.77;1.00;;;;;;;12.96;74.04;99651.78;5038445;28;20354;-63
2022/11/04 04:10:40;;;;;;;6.83;1.43;;;;;;;13.00;74.28;99653.09;5034141;28;20211;-63
2022/11/04 04:13:22;;;;;;;6.50;0.90;;;;;;;13.01;73.67;99668.06;5038514;28;20208;-64
2022/11/04 04:15:55;;;;;;;6.27;1.03;;;;;;;12.97;73.56;99650.78;5035336;28;20212;-64
2022/11/04 04:18:30;;;;;;;5.47;1.33;;;;;;;12.91;73.32;99645.38;5036635;28;20246;-63
2022/11/04 04:21:02;;;;;;;5.90;1.13;;;;;;;12.85;72.97;99646.09;5032016;28;20280;-63
2022/11/04 04:29:17;;;;;;;6.60;1.30;;;;;;;12.78;74.04;99661.97;5019350;28;20211;-65
2022/11/04 04:31:51;;;;;;;5.43;0.93;;;;;;;12.58;74.96;99660.81;5054318;28;20211;-66
2022/11/04 04:34:23;;;;;;;4.17;1.20;;;;;;;12.40;75.28;99653.19;5052530;28;20200;-64
2022/11/04 04:36:57;;;;;;;5.87;1.30;;;;;;;12.47;76.11;99640.81;5048818;28;20265;-65
2022/11/04 04:45:03;;;;;;;8.13;1.37;;;;;;;12.58;76.74;99639.53;5056091;28;20622;-63
2022/11/04 04:47:43;;;;;;;3.00;0.80;;;;;;;12.64;76.48;99634.34;5051125;28;20224;-63
2022/11/04 04:50:15;;;;;;;6.20;1.40;;;;;;;12.71;76.11;99637.09;5054562;28;20210;-63
2022/11/04 04:52:46;;;;;;;3.27;0.90;;;;;;;12.74;74.88;99639.41;5051185;28;20250;-63
2022/11/04 04:55:14;;;;;;;6.40;1.20;;;;;;;12.73;74.98;99637.75;5051236;28;20553;-64
2022/11/04 04:57:42;;;;;;;9.67;2.07;;;;;;;12.75;75.30;99635.75;5050684;28;20235;-64
2022/11/04 05:00:14;;;;;;;5.37;1.30;;;;;;;12.63;74.66;99631.84;5051991;28;20207;-64
2022/11/04 05:02:42;;;;;;;5.63;1.43;;;;;;;12.48;75.50;99628.38;5050415;28;20708;-65
2022/11/04 05:05:10;;;;;;;10.60;1.60;;;;;;;12.47;75.87;99634.69;5049715;28;20223;-65
2022/11/04 05:07:39;;;;;;;6.50;1.30;;;;;;;12.37;75.09;99632.28;5050669;28;20306;-64
2022/11/04 05:10:09;;;;;;;7.13;1.20;;;;;;;12.38;75.54;99634.75;5048777;28;20227;-64
2022/11/04 05:15:24;;;;;;;6.97;1.10;;;;;;;12.41;74.57;99645.00;5048781;28;20739;-64
2022/11/04 05:17:54;;;;;;;6.83;1.23;;;;;;;12.38;74.12;99640.06;5052560;28;20682;-65
2022/11/04 05:20:21;;;;;;;3.90;1.37;;;;;;;12.41;74.79;99645.00;5051848;28;20676;-63
2022/11/04 05:22:54;;;;;;;7.30;1.40;;;;;;;12.46;75.46;99646.31;5052498;28;20224;-63
2022/11/04 05:25:21;;;;;;;5.83;1.80;;;;;;;12.54;75.63;99627.63;5053276;28;20264;-63
2022/11/04 05:27:49;;;;;;;6.30;1.23;;;;;;;12.55;74.44;99624.78;5051870;28;20208;-65
2022/11/04 05:30:17;;;;;;;5.40;1.50;;;;;;;12.51;74.22;99615.50;5054930;28;20266;-64
2022/11/04 05:32:44;;;;;;;3.77;1.23;;;;;;;12.51;74.10;99609.38;5052488;28;20208;-65
2022/11/04 05:35:12;;;;;;;6.60;1.67;;;;;;;12.46;74.13;99609.09;5056246;28;20264;-63
2022/11/04 05:37:40;;;;;;;8.23;2.00;;;;;;;12.42;74.50;99596.16;5055195;28;20225;-63
2022/11/04 05:40:10;;;;;;;9.13;2.03;;;;;;;12.42;74.82;99597.97;5047474;28;20747;-64
2022/11/04 05:42:38;;;;;;;6.90;1.70;;;;;;;12.48;75.67;99596.44;5053332;28;20285;-63
2022/11/04 05:45:06;;;;;;;11.33;1.97;;;;;;;12.53;76.08;99604.69;5058539;28;20204;-64
2022/11/04 05:47:34;;;;;;;5.70;1.50;;;;;;;12.49;75.82;99598.09;5055066;28;20211;-63
2022/11/04 05:50:02;;;;;;;7.90;1.53;;;;;;;12.38;75.24;99592.22;5056208;28;20589;-63
2022/11/04 05:52:29;;;;;;;10.17;1.87;;;;;;;12.32;75.51;99587.59;5047235;28;20208;-64
2022/11/04 05:54:57;;;;;;;4.83;1.73;;;;;;;12.27;75.93;99584.69;5050134;28;20250;-64
2022/11/04 05:57:26;;;;;;;6.83;1.87;;;;;;;12.32;75.90;99581.47;5053051;28;20265;-62
2022/11/04 05:59:53;;;;;;;7.07;2.03;;;;;;;12.32;76.01;99595.59;5046745;28;20220;-63
2022/11/04 06:02:21;;;;;;;9.27;3.20;;;;;;;12.33;76.23;99593.75;5050720;28;20312;-64
2022/11/04 06:04:49;;;;;;;7.47;2.30;;;;;;;12.37;76.17;99587.91;5052552;28;21231;-63
2022/11/04 06:07:16;;;;;;;4.67;1.83;;;;;;;12.39;75.67;99598.38;5046081;28;20273;-63
2022/11/04 06:09:44;;;;;;;6.43;1.73;;;;;;;12.27;76.42;99605.94;5051010;28;20216;-62
2022/11/04 06:12:14;;;;;;;8.30;2.17;;;;;;;12.31;77.03;99607.22;5049464;28;20276;-64
2022/11/04 06:14:43;;;;;;;5.50;1.27;;;;;;;12.31;76.05;99611.72;5047887;28;20247;-64
2022/11/04 06:17:14;;;;;;;8.40;2.43;;;;;;;12.26;76.94;99614.09;5048755;28;20215;-65
2022/11/04 06:19:42;;;;;;;9.50;1.80;;;;;;;12.28;77.58;99620.88;5052253;28;20261;-64
2022/11/04 06:22:11;;;;;;;6.20;1.60;;;;;;;12.39;77.57;99623.13;5053526;28;20656;-64
2022/11/04 06:24:39;;;;;;;9.80;2.70;;;;;;;12.54;76.67;99635.59;5047119;28;20707;-63
2022/11/04 06:27:07;;;;;;;6.03;2.23;;;;;;;12.60;76.39;99633.03;5045144;28;20402;-63
2022/11/04 06:29:38;;;;;;;9.17;2.37;;;;;;;12.60;76.99;99638.34;5049061;28;20215;-64
2022/11/04 06:32:07;;;;;;;10.07;2.40;;;;;;;12.58;77.60;99639.53;5053553;28;20204;-64
2022/11/04 06:34:35;;;;;;;9.43;1.87;;;;;;;12.50;77.19;99639.63;5048439;28;20209;-62
2022/11/04 06:37:04;;;;;;;5.03;1.70;;;;;;;12.39;76.92;99630.28;5047452;28;20719;-63
2022/11/04 06:39:31;;;;;;;5.80;1.63;;;;;;;12.23;78.46;99641.84;5054961;28;20257;-63
2022/11/04 06:41:59;;;;;;;7.20;2.07;;;;;;;12.14;78.76;99656.19;5045078;28;20231;-63
2022/11/04 06:44:30;;;;;;;10.10;2.83;;;;;;;12.08;78.96;99654.25;5051186;28;20373;-62
2022/11/04 06:46:57;;;;;;;9.87;2.30;;;;;;;11.99;79.69;99661.47;5049260;28;20245;-64
2022/11/04 06:49:26;;;;;;;9.07;2.20;;;;;;;11.87;80.85;99659.41;5044120;28;20211;-63
2022/11/04 06:51:54;;;;;;;6.23;1.93;;;;;;;11.92;80.62;99665.00;5049486;28;20256;-63
2022/11/04 06:54:21;;;;;;;7.13;1.57;;;;;;;11.90;80.75;99656.38;5050726;28;20244;-62
2022/11/04 06:56:49;;;;;;;6.53;2.10;;;;;;;11.90;80.91;99659.03;5051609;28;20227;-63
2022/11/04 06:59:19;;;;;;;11.90;2.17;;;;;;;11.88;80.95;99655.72;5051677;28;20267;-64
2022/11/04 07:01:49;;;;;;;11.73;2.70;;;;;;;11.90;81.24;99653.72;5050569;28;20227;-64
2022/11/04 07:04:17;;;;;;;8.57;2.63;;;;;;;11.94;81.06;99660.34;5053036;28;20302;-63
2022/11/04 07:06:46;;;;;;;9.60;3.13;;;;;;;11.90;81.50;99656.38;5048536;28;20216;-63
2022/11/04 07:09:15;;;;;;;10.53;2.63;;;;;;;11.94;81.57;99649.72;5049279;28;20238;-63
2022/11/04 07:11:44;;;;;;;10.80;3.65;;;;;;;12.14;80.92;99652.75;5049376;28;21164;-62
2022/11/04 07:14:12;;;;;;;8.57;2.80;;;;;;;12.05;81.22;99654.59;5047269;28;20261;-63
2022/11/04 07:16:40;;;;;;;7.17;2.27;;;;;;;12.04;81.21;99652.97;5049018;28;20257;-63
2022/11/04 07:19:08;;;;;;;8.83;1.83;;;;;;;12.07;80.74;99652.59;5045435;28;20214;-62
2022/11/04 07:21:35;;;;;;;10.90;2.20;;;;;;;12.04;80.99;99663.59;5049758;28;20591;-63
2022/11/04 07:24:06;;;;;;;3.97;1.70;;;;;;;12.07;81.05;99663.22;5048482;28;20210;-63
2022/11/04 07:26:33;;;;;;;6.90;1.67;;;;;;;12.10;80.80;99662.88;5052797;28;20261;-63
2022/11/04 07:29:01;;;;;;;10.40;1.90;;;;;;;12.14;80.66;99668.69;5054800;28;20203;-63
2022/11/04 07:31:29;;;;;;;7.50;1.60;;;;;;;12.13;80.41;99678.50;5052162;28;20222;-62
2022/11/04 07:33:56;;;;;;;11.93;2.17;;;;;;;12.11;80.66;99671.69;5054912;28;20273;-63
2022/11/04 07:36:24;;;;;;;7.93;2.10;;;;;;;12.14;80.65;99672.16;5052409;28;20206;-63
2022/11/04 07:38:51;;;;;;;8.03;2.23;;;;;;;12.19;80.15;99677.78;5055197;28;20653;-63
2022/11/04 07:41:21;;;;;;;8.97;2.10;;;;;;;12.23;80.50;99687.03;5058177;28;20263;-63
2022/11/04 07:43:50;;;;;;;9.50;3.23;;;;;;;12.30;80.04;99687.16;5056474;28;21050;-63
2022/11/04 07:46:19;;;;;;;12.70;2.67;;;;;;;12.27;80.33;99683.03;5058420;28;20206;-62
2022/11/04 07:48:47;;;;;;;19.57;2.90;;;;;;;12.30;80.50;99685.34;5051497;28;20241;-63
2022/11/04 07:51:17;;;;;;;8.57;2.20;;;;;;;12.38;79.88;99685.28;5053004;28;20273;-63
2022/11/04 07:53:45;;;;;;;6.27;1.97;;;;;;;12.40;79.88;99687.75;5056223;28;20212;-63
2022/11/04 07:56:13;;;;;;;11.17;2.20;;;;;;;12.46;79.69;99680.88;5058324;28;20657;-63
2022/11/04 07:58:42;;;;;;;6.37;1.60;;;;;;;12.50;79.00;99687.47;5057712;28;20219;-63
2022/11/04 08:01:12;;;;;;;7.90;1.77;;;;;;;12.52;78.86;99686.31;5054919;28;20223;-63
2022/11/04 08:03:40;;;;;;;7.07;1.77;;;;;;;12.47;79.40;99680.72;5051151;28;20228;-63
2022/11/04 08:06:09;;;;;;;9.57;1.80;;;;;;;12.51;79.19;99687.31;5052887;28;20261;-63
2022/11/04 08:08:37;;;;;;;4.30;1.27;;;;;;;12.53;79.01;99679.97;5058755;28;20257;-63
2022/11/04 08:11:07;;;;;;;9.27;1.60;;;;;;;12.52;78.67;99677.50;5054657;28;20203;-63
2022/11/04 08:13:42;;;;;;;4.33;1.57;;;;;;;12.55;78.91;99674.50;5061745;28;20253;-63
2022/11/04 08:16:12;;;;;;;8.03;1.60;;;;;;;12.61;78.91;99676.41;5064105;28;20561;-64
2022/11/04 08:18:41;;;;;;;8.10;1.57;;;;;;;12.66;78.29;99674.06;5055230;28;20843;-63
2022/11/04 08:21:10;;;;;;;5.93;1.50;;;;;;;12.77;77.64;99676.25;5048338;28;22134;-63
2022/11/04 08:23:37;;;;;;;11.73;1.50;;;;;;;12.83;76.86;99678.22;5053283;28;20729;-66
2022/11/04 08:26:07;;;;;;;5.17;1.60;;;;;;;12.84;76.72;99666.53;5052971;28;20240;-63
2022/11/04 08:28:35;;;;;;;6.30;1.30;;;;;;;13.02;76.53;99669.69;5054575;28;20858;-63
2022/11/04 08:31:07;;;;;;;7.27;1.23;;;;;;;13.16;75.27;99668.06;5056607;28;20200;-63
2022/11/04 08:33:35;;;;;;;5.73;1.23;;;;;;;13.22;74.12;99669.16;5056462;28;20672;-63
2022/11/04 08:36:05;;;;;;;7.17;1.83;;;;;;;13.23;74.08;99666.31;5053109;28;20210;-63
2022/11/04 08:38:34;;;;;;;6.93;1.83;;;;;;;13.26;74.40;99673.13;5053662;28;20218;-63
2022/11/04 08:41:03;;;;;;;8.90;2.20;;;;;;;13.21;74.25;99668.34;5053180;28;20645;-63
2022/11/04 08:43:32;;;;;;;6.03;1.90;;;;;;;13.34;74.39;99665.03;5053976;28;20606;-63
2022/11/04 08:46:01;;;;;;;8.30;2.27;;;;;;;13.49;73.54;99657.84;5056905;28;20216;-63
2022/11/04 08:48:30;;;;;;;4.27;1.40;;;;;;;13.60;72.77;99660.03;5050870;28;20222;-63
2022/11/04 08:50:58;;;;;;;6.97;1.80;;;;;;;13.66;72.04;99653.13;5051541;28;20233;-64
2022/11/04 08:53:26;;;;;;;3.23;1.37;;;;;;;13.73;71.59;99652.19;5048830;28;20196;-63
2022/11/04 08:55:54;;;;;;;5.37;1.20;;;;;;;13.74;71.69;99658.34;5049187;28;20713;-62
2022/11/04 08:58:23;;;;;;;4.00;1.53;;;;;;;13.86;71.33;99667.50;5059942;28;20653;-63
2022/11/04 09:00:51;;;;;;;6.27;1.20;;;;;;;13.90;70.56;99664.25;5059663;28;20208;-62
2022/11/04 09:03:19;;;;;;;4.97;1.30;;;;;;;13.96;70.21;99667.19;5059228;28;20656;-61
2022/11/04 09:05:48;;;;;;;4.07;1.20;;;;;;;13.84;70.30;99665.00;5064143;28;20220;-62
2022/11/04 09:08:17;;;;;;;4.93;1.63;;;;;;;13.82;70.68;99667.03;5058020;28;20249;-62
2022/11/04 09:10:47;;;;;;;4.03;1.30;;;;;;;13.83;70.78;99663.38;5052038;28;20219;-62
2022/11/04 09:13:16;;;;;;;4.90;1.53;;;;;;;13.85;70.53;99666.66;5060247;28;20213;-61
2022/11/04 09:15:44;;;;;;;7.20;1.80;;;;;;;13.87;70.23;99675.31;5054116;28;20207;-62
2022/11/04 09:18:11;;;;;;;7.20;2.20;;;;;;;13.81;70.36;99670.72;5053667;28;20219;-63
2022/11/04 09:20:40;;;;;;;8.70;1.83;;;;;;;13.87;70.68;99669.97;5056117;28;20271;-63
2022/11/04 09:23:10;;;;;;;6.93;1.63;;;;;;;14.17;69.75;99670.69;5054440;28;20874;-63
2022/11/04 09:25:38;;;;;;;5.47;1.60;;;;;;;14.92;68.30;99669.28;5054972;28;20237;-63
2022/11/04 09:28:06;;;;;;;8.73;2.20;;;;;;;15.58;64.37;99672.31;5048178;28;20900;-63
2022/11/04 09:30:33;;;;;;;6.10;2.37;;;;;;;15.42;63.88;99676.94;5038881;28;20211;-63
2022/11/04 09:33:01;;;;;;;6.83;2.03;;;;;;;15.11;64.60;99679.25;5035220;28;20712;-63
2022/11/04 09:35:29;;;;;;;6.70;1.60;;;;;;;14.88;66.21;99684.03;5034844;28;20266;-63
2022/11/04 09:37:59;;;;;;;6.27;2.10;;;;;;;14.68;67.23;99694.56;5033900;28;20616;-63
2022/11/04 09:40:30;;;;;;;6.03;2.07;;;;;;;14.52;67.67;99690.31;5038495;28;20214;-62
2022/11/04 09:43:12;;;;;;;5.63;1.97;;;;;;;14.30;68.63;99707.31;5034230;28;20212;-63
2022/11/04 09:45:43;;;;;;;7.67;1.50;;;;;;;14.22;69.59;99689.63;5036286;28;20619;-62
2022/11/04 09:48:18;;;;;;;7.80;2.63;;;;;;;14.23;70.09;99690.44;5037566;28;20455;-63
2022/11/04 09:50:50;;;;;;;5.30;2.10;;;;;;;14.22;70.07;99694.13;5037460;28;20585;-63
2022/11/04 09:53:22;;;;;;;10.17;4.10;;;;;;;14.13;70.60;99696.09;5036231;28;20231;-63
2022/11/04 09:55:55;;;;;;;7.67;2.53;;;;;;;14.06;70.74;99699.69;5036246;28;20206;-63
2022/11/04 09:58:23;;;;;;;6.90;2.10;;;;;;;13.98;71.09;99702.50;5044609;28;20214;-63
2022/11/04 10:00:57;;;;;;;10.93;2.43;;;;;;;13.96;71.14;99700.00;5039508;28;20587;-62
2022/11/04 10:03:43;;;;;;;9.90;1.80;;;;;;;13.90;71.23;99709.56;5040526;28;20866;-62
2022/11/04 10:06:26;;;;;;;7.00;2.10;;;;;;;13.90;70.80;99714.88;5037827;28;20215;-62
2022/11/04 10:09:21;;;;;;;12.63;2.23;;;;;;;13.84;71.40;99718.31;5035698;28;20213;-62
2022/11/04 10:12:02;;;;;;;6.97;1.50;;;;;;;13.68;72.61;99725.69;5026230;28;20213;-62
2022/11/04 10:15:07;;;;;;;12.37;1.57;;;;;;;13.77;71.95;99720.06;5038273;28;20230;-62
2022/11/04 10:17:58;;;;;;;4.43;1.40;;;;;;;13.66;73.48;99723.22;5034086;28;20684;-62
2022/11/04 10:20:38;;;;;;;3.60;1.43;;;;;;;13.70;73.16;99724.50;5028278;28;20217;-62
2022/11/04 10:23:20;;;;;;;6.73;1.63;;;;;;;13.77;72.68;99717.41;5032811;28;20203;-62
2022/11/04 10:25:53;;;;;;;6.50;1.63;;;;;;;13.81;73.05;99713.34;5038763;28;20770;-62
2022/11/04 10:28:30;;;;;;;11.17;1.80;;;;;;;13.83;73.78;99705.16;5054687;28;20208;-62
2022/11/04 10:30:58;;;;;;;9.03;2.43;;;;;;;13.85;74.11;99708.47;5050811;28;20556;-62
2022/11/04 10:33:30;;;;;;;11.37;1.60;;;;;;;13.99;73.92;99696.94;5054892;28;20689;-62
2022/11/04 10:36:01;;;;;;;5.60;1.80;;;;;;;14.09;73.11;99699.31;5057395;28;20205;-62
2022/11/04 10:38:36;;;;;;;6.17;1.40;;;;;;;14.25;72.18;99696.38;5058376;28;20218;-62
2022/11/04 10:41:17;;;;;;;3.83;1.33;;;;;;;14.33;71.73;99696.28;5056220;28;20214;-62
2022/11/04 10:43:48;;;;;;;4.90;1.30;;;;;;;14.38;70.90;99685.84;5060346;28;20225;-63
2022/11/04 10:46:29;;;;;;;5.90;1.43;;;;;;;14.36;71.31;99679.88;5061267;28;20669;-62
2022/11/04 10:49:16;;;;;;;5.40;1.67;;;;;;;14.36;71.70;99682.53;5053298;28;20549;-61
2022/11/04 10:51:44;;;;;;;4.50;1.60;;;;;;;14.39;70.75;99684.88;5056380;28;20237;-62
2022/11/04 10:54:12;;;;;;;4.37;1.57;;;;;;;14.47;70.34;99687.41;5048057;28;20273;-62
2022/11/04 10:56:43;;;;;;;5.80;1.33;;;;;;;14.46;70.06;99688.41;5052951;28;20261;-62
2022/11/04 10:59:24;;;;;;;5.13;1.63;;;;;;;14.48;69.76;99685.56;5056859;28;20216;-62
2022/11/04 11:01:54;;;;;;;2.93;1.10;;;;;;;14.45;70.01;99678.75;5056407;28;20203;-63
2022/11/04 11:04:32;;;;;;;4.77;1.80;;;;;;;14.52;69.69;99678.81;5057228;28;20284;-62
2022/11/04 11:07:02;;;;;;;9.07;1.50;;;;;;;14.48;70.04;99673.06;5053095;28;20256;-62
2022/11/04 11:09:33;;;;;;;5.53;1.27;;;;;;;14.49;69.51;99680.03;5046780;28;20206;-63
2022/11/04 11:12:02;;;;;;;7.87;1.90;;;;;;;14.49;69.45;99677.38;5045536;28;20214;-61
2022/11/04 11:14:46;;;;;;;8.57;1.67;;;;;;;14.40;69.59;99672.38;5056094;28;20291;-62
2022/11/04 11:17:25;;;;;;;7.23;1.67;;;;;;;14.46;69.93;99674.25;5056406;28;20385;-62
2022/11/04 11:19:55;;;;;;;7.87;1.63;;;;;;;14.69;69.24;99675.69;5063735;28;20218;-62
2022/11/04 11:22:34;;;;;;;8.77;1.80;;;;;;;14.83;68.49;99675.78;5057628;28;20204;-62
2022/11/04 11:25:17;;;;;;;15.30;2.03;;;;;;;14.79;68.81;99674.50;5061500;28;20335;-63
2022/11/04 11:27:49;;;;;;;6.10;1.83;;;;;;;14.81;68.59;99667.97;5062413;28;20288;-63
2022/11/04 11:30:24;;;;;;;5.17;1.80;;;;;;;14.65;69.12;99671.75;5063376;28;20199;-63
2022/11/04 11:32:58;;;;;;;12.27;1.60;;;;;;;14.56;70.15;99672.09;5060564;28;20584;-63
2022/11/04 11:35:31;;;;;;;5.17;1.70;;;;;;;14.52;70.26;99684.16;5062204;28;20810;-62
2022/11/04 11:38:02;;;;;;;6.10;1.70;;;;;;;14.44;71.08;99677.13;5059556;28;20228;-62
2022/11/04 11:40:36;;;;;;;7.97;1.53;;;;;;;14.48;71.05;99678.38;5061568;28;20219;-64
2022/11/04 11:43:26;;;;;;;6.87;1.63;;;;;;;14.47;71.54;99684.75;5057985;28;20220;-64
2022/11/04 11:45:58;;;;;;;6.23;1.33;;;;;;;14.45;72.60;99676.09;5062991;28;20240;-62
2022/11/04 11:48:30;;;;;;;6.97;1.70;;;;;;;14.44;72.68;99677.13;5059076;28;20658;-61
2022/11/04 11:50:59;;;;;;;6.23;1.60;;;;;;;14.44;72.96;99681.63;5058515;28;20207;-62
2022/11/04 11:53:32;;;;;;;6.87;1.30;;;;;;;14.51;72.69;99671.84;5060160;28;20728;-62
2022/11/04 11:56:10;;;;;;;11.90;1.80;;;;;;;14.50;73.17;99672.88;5063104;28;20261;-63
2022/11/04 11:58:43;;;;;;;6.63;1.93;;;;;;;14.38;75.16;99674.38;5057411;28;20199;-63
2022/11/04 12:01:36;;;;;;;8.03;1.87;;;;;;;14.46;75.46;99667.09;5053994;28;20635;-62
2022/11/04 12:04:04;;;;;;;9.37;1.37;;;;;;;14.56;74.43;99666.75;5059112;28;20687;-62
2022/11/04 12:07:02;;;;;;;6.03;1.20;;;;;;;14.62;73.74;99674.81;5056783;28;20730;-61
2022/11/04 12:09:58;;;;;;;8.20;1.80;;;;;;;14.59;74.10;99669.03;5054350;28;20629;-62
2022/11/04 12:12:43;;;;;;;9.10;1.80;;;;;;;14.43;73.77;99670.13;5055979;28;20215;-62
2022/11/04 12:15:57;;;;;;;5.43;1.30;;;;;;;14.26;74.32;99666.03;5056341;28;20245;-62
2022/11/04 12:19:00;;;;;;;3.13;1.10;;;;;;;14.21;74.51;99655.13;4974932;28;20233;-64
2022/11/04 12:21:33;;;;;;;9.20;1.43;;;;;;;14.24;74.53;99654.78;4963223;28;20212;-64
2022/11/04 12:24:21;;;;;;;5.67;1.30;;;;;;;14.15;75.69;99661.25;5036325;28;20278;-62
2022/11/04 12:26:59;;;;;;;7.00;1.40;;;;;;;14.10;75.84;99659.13;5053874;28;20243;-63
2022/11/04 12:29:40;;;;;;;9.60;1.40;;;;;;;14.14;75.93;99662.25;5058489;28;20226;-63